createdAt,value
2017-11-17T00:00:48.738Z,1017.30
2017-11-17T00:01:48.718Z,1017.28
2017-11-17T00:02:48.695Z,1017.21
2017-11-17T00:03:48.674Z,1017.29
2017-11-17T00:04:48.653Z,1017.30
2017-11-17T00:05:48.631Z,1017.33
2017-11-17T00:06:48.610Z,1017.38
2017-11-17T00:07:48.587Z,1017.37
2017-11-17T00:08:48.567Z,1017.36
2017-11-17T00:09:48.544Z,1017.38
2017-11-17T00:10:48.522Z,1017.33
2017-11-17T00:11:48.503Z,1017.39
2017-11-17T00:12:48.481Z,1017.35
2017-11-17T00:13:48.459Z,1017.38
2017-11-17T00:14:48.437Z,1017.39
2017-11-17T00:15:48.415Z,1017.47
2017-11-17T00:16:48.395Z,1017.47
2017-11-17T00:17:48.371Z,1017.49
2017-11-17T00:18:48.355Z,1017.48
2017-11-17T00:19:48.330Z,1017.48
2017-11-17T00:20:48.311Z,1017.45
2017-11-17T00:21:48.287Z,1017.47
2017-11-17T00:22:48.265Z,1017.46
2017-11-17T00:23:48.243Z,1017.47
2017-11-17T00:24:48.224Z,1017.49
2017-11-17T00:25:48.201Z,1017.50
2017-11-17T00:26:48.182Z,1017.47
2017-11-17T00:27:48.166Z,1017.51
2017-11-17T00:28:48.141Z,1017.53
2017-11-17T00:29:48.115Z,1017.55
2017-11-17T00:30:48.093Z,1017.51
2017-11-17T00:31:48.079Z,1017.53
2017-11-17T00:32:48.053Z,1017.51
2017-11-17T00:33:48.029Z,1017.50
2017-11-17T00:34:48.008Z,1017.53
2017-11-17T00:35:47.987Z,1017.54
2017-11-17T00:36:47.966Z,1017.50
2017-11-17T00:37:47.964Z,1017.54
2017-11-17T00:38:47.923Z,1017.55
2017-11-17T00:39:47.908Z,1017.54
2017-11-17T00:40:47.880Z,1017.52
2017-11-17T00:41:47.862Z,1017.55
2017-11-17T00:42:47.839Z,1017.58
2017-11-17T00:43:47.817Z,1017.56
2017-11-17T00:44:47.796Z,1017.56
2017-11-17T00:45:47.774Z,1017.55
2017-11-17T00:46:47.754Z,1017.59
2017-11-17T00:47:47.731Z,1017.57
2017-11-17T00:48:47.710Z,1017.65
2017-11-17T00:49:47.687Z,1017.64
2017-11-17T00:50:47.666Z,1017.70
2017-11-17T00:51:47.646Z,1017.68
2017-11-17T00:52:47.626Z,1017.67
2017-11-17T00:53:47.607Z,1017.69
2017-11-17T00:54:47.580Z,1017.70
2017-11-17T00:55:47.557Z,1017.73
2017-11-17T00:56:47.543Z,1017.74
2017-11-17T00:57:47.516Z,1017.79
2017-11-17T00:58:47.495Z,1017.78
2017-11-17T00:59:47.478Z,1017.82
2017-11-17T01:00:47.456Z,1017.81
2017-11-17T01:01:47.430Z,1017.83
2017-11-17T01:02:47.409Z,1017.83
2017-11-17T01:03:47.386Z,1017.80
2017-11-17T01:04:47.366Z,1017.86
2017-11-17T01:05:47.344Z,1017.88
2017-11-17T01:06:47.329Z,1017.82
2017-11-17T01:07:47.301Z,1017.85
2017-11-17T01:08:47.282Z,1017.87
2017-11-17T01:09:47.274Z,1017.88
2017-11-17T01:10:47.237Z,1017.90
2017-11-17T01:11:47.215Z,1017.87
2017-11-17T01:12:47.199Z,1017.88
2017-11-17T01:13:47.172Z,1017.89
2017-11-17T01:14:47.151Z,1017.92
2017-11-17T01:15:47.130Z,1017.91
2017-11-17T01:16:47.110Z,1017.91
2017-11-17T01:17:47.085Z,1017.91
2017-11-17T01:18:47.067Z,1017.96
2017-11-17T01:19:47.046Z,1017.96
2017-11-17T01:20:47.022Z,1017.97
2017-11-17T01:21:46.999Z,1017.98
2017-11-17T01:22:46.980Z,1017.97
2017-11-17T01:23:46.960Z,1017.98
2017-11-17T01:24:46.938Z,1017.98
2017-11-17T01:25:46.915Z,1018.05
2017-11-17T01:26:46.893Z,1018.01
2017-11-17T01:27:46.874Z,1017.99
2017-11-17T01:28:46.850Z,1018.03
2017-11-17T01:29:46.831Z,1018.00
2017-11-17T01:30:46.806Z,1018.04
2017-11-17T01:31:46.788Z,1018.06
2017-11-17T01:32:46.766Z,1018.08
2017-11-17T01:33:46.743Z,1018.07
2017-11-17T01:34:46.721Z,1018.10
2017-11-17T01:35:46.701Z,1018.13
2017-11-17T01:36:46.678Z,1018.13
2017-11-17T01:37:46.659Z,1018.13
2017-11-17T01:38:46.635Z,1018.14
2017-11-17T01:39:46.614Z,1018.19
2017-11-17T01:40:46.595Z,1018.16
2017-11-17T01:41:46.570Z,1018.16
2017-11-17T01:42:46.549Z,1018.16
2017-11-17T01:43:46.528Z,1018.18
2017-11-17T01:44:46.507Z,1018.21
2017-11-17T01:45:46.485Z,1018.21
2017-11-17T01:46:46.465Z,1018.22
2017-11-17T01:47:46.440Z,1018.26
2017-11-17T01:48:46.423Z,1018.24
2017-11-17T01:49:46.399Z,1018.23
2017-11-17T01:50:46.378Z,1018.22
2017-11-17T01:51:46.355Z,1018.21
2017-11-17T01:52:46.335Z,1018.22
2017-11-17T01:53:46.313Z,1018.24
2017-11-17T01:54:46.292Z,1018.27
2017-11-17T01:55:46.271Z,1018.28
2017-11-17T01:56:46.248Z,1018.33
2017-11-17T01:57:46.226Z,1018.31
2017-11-17T01:58:46.205Z,1018.30
2017-11-17T01:59:46.183Z,1018.27
2017-11-17T02:00:46.162Z,1018.29
2017-11-17T02:01:46.140Z,1018.27
2017-11-17T02:02:46.118Z,1018.25
2017-11-17T02:03:46.101Z,1018.29
2017-11-17T02:04:46.076Z,1018.30
2017-11-17T02:05:46.055Z,1018.31
2017-11-17T02:06:46.033Z,1018.32
2017-11-17T02:07:46.012Z,1018.31
2017-11-17T02:08:45.987Z,1018.34
2017-11-17T02:09:45.968Z,1018.33
2017-11-17T02:10:45.945Z,1018.37
2017-11-17T02:11:45.925Z,1018.39
2017-11-17T02:12:45.903Z,1018.40
2017-11-17T02:13:45.878Z,1018.44
2017-11-17T02:14:45.859Z,1018.44
2017-11-17T02:15:45.837Z,1018.40
2017-11-17T02:16:45.818Z,1018.44
2017-11-17T02:17:45.793Z,1018.45
2017-11-17T02:18:45.771Z,1018.52
2017-11-17T02:19:45.758Z,1018.48
2017-11-17T02:20:45.728Z,1018.53
2017-11-17T02:21:45.707Z,1018.51
2017-11-17T02:22:45.686Z,1018.52
2017-11-17T02:23:45.662Z,1018.56
2017-11-17T02:24:45.641Z,1018.53
2017-11-17T02:25:45.619Z,1018.52
2017-11-17T02:26:45.597Z,1018.55
2017-11-17T02:27:45.575Z,1018.58
2017-11-17T02:28:45.554Z,1018.56
2017-11-17T02:29:45.532Z,1018.54
2017-11-17T02:30:45.512Z,1018.55
2017-11-17T02:31:45.489Z,1018.51
2017-11-17T02:32:45.473Z,1018.52
2017-11-17T02:33:45.447Z,1018.49
2017-11-17T02:34:45.425Z,1018.53
2017-11-17T02:37:17.507Z,1018.51
2017-11-17T02:38:17.453Z,1018.50
2017-11-17T02:40:10.834Z,1018.58
2017-11-17T02:41:10.788Z,1018.67
2017-11-17T02:43:04.152Z,1018.64
2017-11-17T02:44:04.110Z,1018.66
2017-11-17T02:45:57.490Z,1018.62
2017-11-17T02:46:57.444Z,1018.65
2017-11-17T02:48:50.823Z,1018.65
2017-11-17T02:49:50.782Z,1018.65
2017-11-17T02:51:44.136Z,1018.68
2017-11-17T02:52:44.109Z,1018.72
2017-11-17T02:54:37.490Z,1018.74
2017-11-17T02:55:37.441Z,1018.74
2017-11-17T02:57:30.789Z,1018.77
2017-11-17T02:58:30.764Z,1018.79
2017-11-17T03:00:24.143Z,1018.75
2017-11-17T03:01:24.099Z,1018.76
2017-11-17T03:03:17.453Z,1018.76
2017-11-17T03:04:17.432Z,1018.77
2017-11-17T03:06:10.797Z,1018.78
2017-11-17T03:07:10.767Z,1018.82
2017-11-17T03:09:04.110Z,1018.83
2017-11-17T03:10:04.084Z,1018.82
2017-11-17T03:11:04.063Z,1018.82
2017-11-17T03:12:04.042Z,1018.83
2017-11-17T03:13:04.019Z,1018.85
2017-11-17T03:14:03.999Z,1018.85
2017-11-17T03:15:03.974Z,1018.86
2017-11-17T03:16:03.951Z,1018.90
2017-11-17T03:17:03.928Z,1018.91
2017-11-17T03:18:03.907Z,1018.91
2017-11-17T03:19:03.882Z,1018.91
2017-11-17T03:20:03.861Z,1018.92
2017-11-17T03:21:03.841Z,1018.87
2017-11-17T03:22:03.819Z,1018.90
2017-11-17T03:23:03.796Z,1018.94
2017-11-17T03:24:03.774Z,1018.92
2017-11-17T03:25:03.753Z,1018.95
2017-11-17T03:26:03.729Z,1018.93
2017-11-17T03:27:03.706Z,1018.94
2017-11-17T03:28:03.685Z,1018.96
2017-11-17T03:29:03.661Z,1018.97
2017-11-17T03:30:03.642Z,1018.99
2017-11-17T03:31:03.627Z,1018.97
2017-11-17T03:32:03.596Z,1018.98
2017-11-17T03:33:03.572Z,1018.97
2017-11-17T03:34:03.550Z,1018.98
2017-11-17T03:35:03.527Z,1019.03
2017-11-17T03:36:03.503Z,1019.01
2017-11-17T03:37:03.481Z,1019.08
2017-11-17T03:38:03.457Z,1019.04
2017-11-17T03:39:03.436Z,1019.05
2017-11-17T03:40:03.414Z,1019.08
2017-11-17T03:41:03.391Z,1019.10
2017-11-17T03:42:03.369Z,1019.05
2017-11-17T03:43:03.344Z,1019.06
2017-11-17T03:44:03.323Z,1019.11
2017-11-17T03:45:03.308Z,1019.08
2017-11-17T03:46:03.276Z,1019.10
2017-11-17T03:47:03.255Z,1019.08
2017-11-17T03:48:03.230Z,1019.19
2017-11-17T03:49:03.208Z,1019.18
2017-11-17T03:50:03.187Z,1019.18
2017-11-17T03:51:03.160Z,1019.24
2017-11-17T03:52:03.139Z,1019.21
2017-11-17T03:53:03.116Z,1019.21
2017-11-17T03:54:03.094Z,1019.26
2017-11-17T03:55:03.071Z,1019.26
2017-11-17T03:56:03.046Z,1019.23
2017-11-17T03:57:03.024Z,1019.29
2017-11-17T03:58:03.001Z,1019.31
2017-11-17T03:59:02.977Z,1019.32
2017-11-17T04:00:02.958Z,1019.34
2017-11-17T04:01:02.930Z,1019.33
2017-11-17T04:02:02.909Z,1019.34
2017-11-17T04:03:02.889Z,1019.37
2017-11-17T04:04:02.861Z,1019.37
2017-11-17T04:05:02.841Z,1019.35
2017-11-17T04:06:02.817Z,1019.36
2017-11-17T04:07:02.793Z,1019.31
2017-11-17T04:08:02.768Z,1019.35
2017-11-17T04:09:02.747Z,1019.33
2017-11-17T04:10:02.726Z,1019.34
2017-11-17T04:11:02.701Z,1019.35
2017-11-17T04:12:02.676Z,1019.32
2017-11-17T04:13:02.654Z,1019.39
2017-11-17T04:14:02.630Z,1019.37
2017-11-17T04:15:02.606Z,1019.36
2017-11-17T04:16:02.583Z,1019.33
2017-11-17T04:17:02.560Z,1019.34
2017-11-17T04:18:02.536Z,1019.40
2017-11-17T04:19:02.512Z,1019.36
2017-11-17T04:20:02.489Z,1019.38
2017-11-17T04:21:02.469Z,1019.39
2017-11-17T04:22:02.442Z,1019.44
2017-11-17T04:23:02.424Z,1019.42
2017-11-17T04:24:02.397Z,1019.43
2017-11-17T04:25:02.374Z,1019.43
2017-11-17T04:26:02.349Z,1019.44
2017-11-17T04:27:02.325Z,1019.41
2017-11-17T04:28:02.301Z,1019.42
2017-11-17T04:29:02.280Z,1019.43
2017-11-17T04:30:02.255Z,1019.42
2017-11-17T04:31:02.231Z,1019.40
2017-11-17T04:32:02.208Z,1019.43
2017-11-17T04:33:02.185Z,1019.39
2017-11-17T04:34:02.161Z,1019.43
2017-11-17T04:35:02.138Z,1019.41
2017-11-17T04:36:02.113Z,1019.39
2017-11-17T04:37:02.100Z,1019.39
2017-11-17T04:38:02.072Z,1019.39
2017-11-17T04:39:02.042Z,1019.40
2017-11-17T04:40:02.021Z,1019.40
2017-11-17T04:41:01.998Z,1019.44
2017-11-17T04:42:01.976Z,1019.43
2017-11-17T04:43:01.949Z,1019.43
2017-11-17T04:44:01.934Z,1019.45
2017-11-17T04:45:01.905Z,1019.42
2017-11-17T04:46:01.879Z,1019.45
2017-11-17T04:47:01.855Z,1019.41
2017-11-17T04:48:01.830Z,1019.41
2017-11-17T04:49:01.811Z,1019.43
2017-11-17T04:50:01.787Z,1019.42
2017-11-17T04:51:01.762Z,1019.44
2017-11-17T04:52:01.744Z,1019.44
2017-11-17T04:53:01.714Z,1019.42
2017-11-17T04:54:01.688Z,1019.45
2017-11-17T04:55:01.666Z,1019.42
2017-11-17T04:56:01.646Z,1019.44
2017-11-17T04:57:01.618Z,1019.45
2017-11-17T04:58:01.595Z,1019.46
2017-11-17T04:59:01.572Z,1019.51
2017-11-17T05:00:01.548Z,1019.47
2017-11-17T05:01:01.522Z,1019.48
2017-11-17T05:02:01.503Z,1019.45
2017-11-17T05:03:01.474Z,1019.49
2017-11-17T05:04:01.454Z,1019.49
2017-11-17T05:05:01.430Z,1019.50
2017-11-17T05:06:01.406Z,1019.51
2017-11-17T05:07:01.381Z,1019.56
2017-11-17T05:08:01.358Z,1019.57
2017-11-17T05:09:01.333Z,1019.56
2017-11-17T05:10:01.307Z,1019.56
2017-11-17T05:11:01.286Z,1019.57
2017-11-17T05:12:01.261Z,1019.55
2017-11-17T05:13:01.238Z,1019.57
2017-11-17T05:14:01.214Z,1019.60
2017-11-17T05:15:01.190Z,1019.60
2017-11-17T05:16:01.166Z,1019.61
2017-11-17T05:17:01.144Z,1019.60
2017-11-17T05:18:01.120Z,1019.64
2017-11-17T05:19:01.096Z,1019.70
2017-11-17T05:20:01.071Z,1019.67
2017-11-17T05:21:01.050Z,1019.67
2017-11-17T05:22:01.023Z,1019.69
2017-11-17T05:23:00.998Z,1019.71
2017-11-17T05:24:00.978Z,1019.69
2017-11-17T05:25:00.950Z,1019.74
2017-11-17T05:26:00.928Z,1019.72
2017-11-17T05:27:00.905Z,1019.71
2017-11-17T05:28:00.881Z,1019.71
2017-11-17T05:29:00.855Z,1019.76
2017-11-17T05:30:00.833Z,1019.78
2017-11-17T05:31:00.809Z,1019.73
2017-11-17T05:32:00.785Z,1019.72
2017-11-17T05:33:00.761Z,1019.77
2017-11-17T05:34:00.737Z,1019.78
2017-11-17T05:35:00.712Z,1019.77
2017-11-17T05:36:00.689Z,1019.81
2017-11-17T05:37:00.665Z,1019.83
2017-11-17T05:38:00.640Z,1019.81
2017-11-17T05:39:00.624Z,1019.83
2017-11-17T05:40:00.595Z,1019.80
2017-11-17T05:41:00.568Z,1019.80
2017-11-17T05:42:00.544Z,1019.78
2017-11-17T05:43:00.520Z,1019.81
2017-11-17T05:44:00.497Z,1019.85
2017-11-17T05:45:00.471Z,1019.81
2017-11-17T05:46:00.451Z,1019.80
2017-11-17T05:47:00.424Z,1019.83
2017-11-17T05:48:00.402Z,1019.83
2017-11-17T05:49:00.376Z,1019.87
2017-11-17T05:50:00.356Z,1019.84
2017-11-17T05:51:00.327Z,1019.86
2017-11-17T05:52:00.304Z,1019.86
2017-11-17T05:53:00.280Z,1019.88
2017-11-17T05:54:00.261Z,1019.88
2017-11-17T05:55:00.233Z,1019.86
2017-11-17T05:56:00.208Z,1019.89
2017-11-17T05:57:00.185Z,1019.88
2017-11-17T05:58:00.164Z,1019.93
2017-11-17T05:59:00.135Z,1019.90
2017-11-17T06:00:00.110Z,1019.93
2017-11-17T06:01:00.088Z,1019.95
2017-11-17T06:02:00.063Z,1019.93
2017-11-17T06:03:00.039Z,1019.92
2017-11-17T06:04:00.015Z,1019.95
2017-11-17T06:04:59.991Z,1020.00
2017-11-17T06:05:59.966Z,1019.99
2017-11-17T06:06:59.942Z,1020.00
2017-11-17T06:07:59.918Z,1019.99
2017-11-17T06:08:59.892Z,1019.96
2017-11-17T06:09:59.870Z,1019.97
2017-11-17T06:10:59.842Z,1019.97
2017-11-17T06:11:59.820Z,1019.99
2017-11-17T06:12:59.794Z,1019.99
2017-11-17T06:13:59.771Z,1020.06
2017-11-17T06:14:59.745Z,1020.06
2017-11-17T06:15:59.722Z,1020.12
2017-11-17T06:16:59.699Z,1020.11
2017-11-17T06:17:59.674Z,1020.13
2017-11-17T06:18:59.649Z,1020.11
2017-11-17T06:19:59.623Z,1020.14
2017-11-17T06:20:59.601Z,1020.13
2017-11-17T06:21:59.575Z,1020.13
2017-11-17T06:22:59.550Z,1020.18
2017-11-17T06:23:59.525Z,1020.16
2017-11-17T06:24:59.505Z,1020.21
2017-11-17T06:25:59.477Z,1020.20
2017-11-17T06:26:59.451Z,1020.20
2017-11-17T06:27:59.431Z,1020.18
2017-11-17T06:28:59.405Z,1020.21
2017-11-17T06:29:59.381Z,1020.18
2017-11-17T06:30:59.355Z,1020.23
2017-11-17T06:31:59.331Z,1020.23
2017-11-17T06:32:59.314Z,1020.24
2017-11-17T06:33:59.281Z,1020.28
2017-11-17T06:34:59.257Z,1020.28
2017-11-17T06:35:59.233Z,1020.27
2017-11-17T06:36:59.206Z,1020.28
2017-11-17T06:37:59.184Z,1020.30
2017-11-17T06:38:59.162Z,1020.29
2017-11-17T06:39:59.135Z,1020.30
2017-11-17T06:40:59.110Z,1020.34
2017-11-17T06:41:59.086Z,1020.34
2017-11-17T06:42:59.059Z,1020.33
2017-11-17T06:43:59.037Z,1020.34
2017-11-17T06:44:59.011Z,1020.36
2017-11-17T06:45:58.988Z,1020.34
2017-11-17T06:46:58.963Z,1020.35
2017-11-17T06:47:58.937Z,1020.41
2017-11-17T06:48:58.915Z,1020.41
2017-11-17T06:49:58.889Z,1020.39
2017-11-17T06:50:58.864Z,1020.41
2017-11-17T06:51:58.840Z,1020.38
2017-11-17T06:52:58.814Z,1020.41
2017-11-17T06:53:58.790Z,1020.44
2017-11-17T06:54:58.764Z,1020.41
2017-11-17T06:55:58.741Z,1020.40
2017-11-17T06:56:58.715Z,1020.43
2017-11-17T06:57:58.692Z,1020.42
2017-11-17T06:58:58.672Z,1020.44
2017-11-17T06:59:58.643Z,1020.46
2017-11-17T07:00:58.618Z,1020.43
2017-11-17T07:01:58.593Z,1020.45
2017-11-17T07:02:58.574Z,1020.49
2017-11-17T07:03:58.548Z,1020.49
2017-11-17T07:04:58.519Z,1020.55
2017-11-17T07:05:58.493Z,1020.53
2017-11-17T07:06:58.472Z,1020.57
2017-11-17T07:07:58.443Z,1020.59
2017-11-17T07:08:58.421Z,1020.60
2017-11-17T07:09:58.395Z,1020.61
2017-11-17T07:10:58.369Z,1020.66
2017-11-17T07:11:58.347Z,1020.70
2017-11-17T07:12:58.320Z,1020.72
2017-11-17T07:13:58.298Z,1020.72
2017-11-17T07:14:58.270Z,1020.74
2017-11-17T07:15:58.246Z,1020.73
2017-11-17T07:16:58.222Z,1020.79
2017-11-17T07:17:58.202Z,1020.86
2017-11-17T07:18:58.178Z,1020.83
2017-11-17T07:19:58.147Z,1020.87
2017-11-17T07:20:58.122Z,1020.88
2017-11-17T07:21:58.098Z,1020.93
2017-11-17T07:22:58.648Z,1020.97
2017-11-17T07:23:58.048Z,1020.96
2017-11-17T07:24:58.024Z,1021.00
2017-11-17T07:25:58.018Z,1021.01
2017-11-17T07:26:58.075Z,1021.00
2017-11-17T07:27:57.948Z,1021.04
2017-11-17T07:28:57.926Z,1021.06
2017-11-17T07:29:57.902Z,1021.07
2017-11-17T07:30:57.875Z,1021.08
2017-11-17T07:31:57.855Z,1021.08
2017-11-17T07:32:57.824Z,1021.14
2017-11-17T07:33:57.806Z,1021.10
2017-11-17T07:34:57.776Z,1021.11
2017-11-17T07:35:57.753Z,1021.13
2017-11-17T07:36:57.726Z,1021.15
2017-11-17T07:37:57.703Z,1021.11
2017-11-17T07:38:57.679Z,1021.12
2017-11-17T07:39:57.653Z,1021.09
2017-11-17T07:40:57.628Z,1021.09
2017-11-17T07:41:57.602Z,1021.13
2017-11-17T07:42:57.578Z,1021.15
2017-11-17T07:43:57.554Z,1021.15
2017-11-17T07:44:57.529Z,1021.21
2017-11-17T07:45:57.504Z,1021.20
2017-11-17T07:46:57.479Z,1021.23
2017-11-17T07:47:57.457Z,1021.27
2017-11-17T07:48:57.433Z,1021.28
2017-11-17T07:49:57.406Z,1021.29
2017-11-17T07:50:57.381Z,1021.23
2017-11-17T07:51:57.363Z,1021.26
2017-11-17T07:52:57.331Z,1021.27
2017-11-17T07:53:57.303Z,1021.27
2017-11-17T07:54:57.279Z,1021.23
2017-11-17T07:55:57.260Z,1021.28
2017-11-17T07:56:57.234Z,1021.27
2017-11-17T07:57:57.209Z,1021.27
2017-11-17T07:58:57.187Z,1021.29
2017-11-17T07:59:57.159Z,1021.27
2017-11-17T08:00:57.137Z,1021.27
2017-11-17T08:01:57.112Z,1021.25
2017-11-17T08:02:57.084Z,1021.25
2017-11-17T08:03:57.064Z,1021.25
2017-11-17T08:04:57.042Z,1021.23
2017-11-17T08:05:57.012Z,1021.25
2017-11-17T08:06:56.987Z,1021.24
2017-11-17T08:07:56.964Z,1021.27
2017-11-17T08:08:56.939Z,1021.26
2017-11-17T08:09:56.918Z,1021.32
2017-11-17T08:10:56.890Z,1021.30
2017-11-17T08:11:56.867Z,1021.30
2017-11-17T08:12:56.842Z,1021.27
2017-11-17T08:13:56.817Z,1021.30
2017-11-17T08:14:56.792Z,1021.28
2017-11-17T08:15:56.769Z,1021.26
2017-11-17T08:16:56.745Z,1021.27
2017-11-17T08:17:56.721Z,1021.30
2017-11-17T08:18:56.780Z,1021.29
2017-11-17T08:19:56.721Z,1021.29
2017-11-17T08:20:56.736Z,1021.32
2017-11-17T08:21:56.623Z,1021.30
2017-11-17T08:22:56.598Z,1021.31
2017-11-17T08:23:56.573Z,1021.31
2017-11-17T08:24:56.549Z,1021.36
2017-11-17T08:25:56.529Z,1021.31
2017-11-17T08:26:56.500Z,1021.30
2017-11-17T08:27:56.476Z,1021.32
2017-11-17T08:28:56.452Z,1021.28
2017-11-17T08:29:56.427Z,1021.28
2017-11-17T08:30:56.449Z,1021.30
2017-11-17T08:31:56.429Z,1021.27
2017-11-17T08:32:56.432Z,1021.26
2017-11-17T08:33:56.429Z,1021.26
2017-11-17T08:34:56.306Z,1021.25
2017-11-17T08:36:03.936Z,1021.25
2017-11-17T08:37:49.765Z,1021.25
2017-11-17T08:38:49.674Z,1021.29
2017-11-17T08:39:49.642Z,1021.26
2017-11-17T08:40:49.551Z,1021.28
2017-11-17T08:41:49.526Z,1021.26
2017-11-17T08:42:49.575Z,1021.25
2017-11-17T08:43:49.548Z,1021.29
2017-11-17T08:44:49.549Z,1021.32
2017-11-17T08:45:49.534Z,1021.30
2017-11-17T08:46:49.410Z,1021.28
2017-11-17T08:47:49.385Z,1021.30
2017-11-17T08:48:49.358Z,1021.31
2017-11-17T08:49:49.434Z,1021.28
2017-11-17T08:50:49.416Z,1021.32
2017-11-17T08:51:49.364Z,1021.29
2017-11-17T08:52:49.302Z,1021.30
2017-11-17T08:53:49.328Z,1021.33
2017-11-17T08:54:49.297Z,1021.34
2017-11-17T08:55:49.285Z,1021.35
2017-11-17T08:56:49.255Z,1021.33
2017-11-17T08:57:49.195Z,1021.31
2017-11-17T08:58:49.218Z,1021.31
2017-11-17T08:59:49.158Z,1021.29
2017-11-17T09:00:49.072Z,1021.31
2017-11-17T09:01:49.053Z,1021.32
2017-11-17T09:02:49.025Z,1021.30
2017-11-17T09:03:49.101Z,1021.28
2017-11-17T09:04:49.032Z,1021.26
2017-11-17T09:05:49.011Z,1021.23
2017-11-17T09:06:48.985Z,1021.28
2017-11-17T09:07:48.980Z,1021.26
2017-11-17T09:08:48.918Z,1021.25
2017-11-17T09:09:48.864Z,1021.24
2017-11-17T09:10:48.837Z,1021.24
2017-11-17T09:11:48.816Z,1021.28
2017-11-17T09:12:48.852Z,1021.26
2017-11-17T09:13:48.854Z,1021.27
2017-11-17T09:14:48.806Z,1021.26
2017-11-17T09:15:48.809Z,1021.28
2017-11-17T09:16:48.800Z,1021.32
2017-11-17T09:17:48.722Z,1021.28
2017-11-17T09:18:48.660Z,1021.25
2017-11-17T09:19:48.700Z,1021.27
2017-11-17T09:20:48.659Z,1021.26
2017-11-17T09:21:48.654Z,1021.30
2017-11-17T09:22:48.657Z,1021.28
2017-11-17T09:23:48.598Z,1021.31
2017-11-17T09:24:48.509Z,1021.34
2017-11-17T09:25:48.549Z,1021.35
2017-11-17T09:26:48.553Z,1021.35
2017-11-17T09:27:48.440Z,1021.38
2017-11-17T09:28:48.415Z,1021.36
2017-11-17T09:29:48.451Z,1021.35
2017-11-17T09:30:48.370Z,1021.38
2017-11-17T09:31:48.349Z,1021.40
2017-11-17T09:32:48.324Z,1021.45
2017-11-17T09:33:48.301Z,1021.45
2017-11-17T09:34:48.276Z,1021.51
2017-11-17T09:35:48.256Z,1021.52
2017-11-17T09:36:48.232Z,1021.47
2017-11-17T09:37:48.213Z,1021.49
2017-11-17T09:38:48.193Z,1021.52
2017-11-17T09:39:48.249Z,1021.50
2017-11-17T09:40:48.141Z,1021.50
2017-11-17T09:41:48.203Z,1021.49
2017-11-17T09:42:48.098Z,1021.52
2017-11-17T09:43:48.134Z,1021.50
2017-11-17T09:44:48.051Z,1021.48
2017-11-17T09:45:48.095Z,1021.50
2017-11-17T09:46:48.105Z,1021.56
2017-11-17T09:47:48.043Z,1021.54
2017-11-17T09:48:48.075Z,1021.53
2017-11-17T09:49:48.010Z,1021.54
2017-11-17T09:50:48.003Z,1021.52
2017-11-17T09:51:47.944Z,1021.52
2017-11-17T09:52:47.874Z,1021.52
2017-11-17T09:53:47.853Z,1021.50
2017-11-17T09:54:47.829Z,1021.50
2017-11-17T09:55:47.809Z,1021.50
2017-11-17T09:56:47.860Z,1021.50
2017-11-17T09:57:47.832Z,1021.53
2017-11-17T09:58:47.859Z,1021.50
2017-11-17T09:59:47.818Z,1021.53
2017-11-17T10:00:47.712Z,1021.53
2017-11-17T10:01:47.677Z,1021.57
2017-11-17T10:02:47.655Z,1021.52
2017-11-17T10:03:47.636Z,1021.55
2017-11-17T10:04:47.611Z,1021.58
2017-11-17T10:05:47.590Z,1021.55
2017-11-17T10:06:47.569Z,1021.55
2017-11-17T10:07:47.547Z,1021.58
2017-11-17T10:08:47.620Z,1021.64
2017-11-17T10:09:47.598Z,1021.75
2017-11-17T10:10:47.483Z,1021.81
2017-11-17T10:11:47.463Z,1021.89
2017-11-17T10:12:47.440Z,1021.92
2017-11-17T10:13:47.420Z,1021.95
2017-11-17T10:14:47.400Z,1022.04
2017-11-17T10:15:47.380Z,1022.06
2017-11-17T10:16:47.355Z,1022.17
2017-11-17T10:17:47.337Z,1022.14
2017-11-17T10:18:47.402Z,1022.18
2017-11-17T10:19:47.357Z,1022.15
2017-11-17T10:20:47.276Z,1022.22
2017-11-17T10:21:47.345Z,1022.16
2017-11-17T10:22:47.299Z,1022.17
2017-11-17T10:23:47.248Z,1022.18
2017-11-17T10:24:47.303Z,1022.23
2017-11-17T10:25:47.284Z,1022.25
2017-11-17T10:26:47.250Z,1022.24
2017-11-17T10:27:47.217Z,1022.22
2017-11-17T10:28:47.201Z,1022.28
2017-11-17T10:29:47.180Z,1022.27
2017-11-17T10:30:47.101Z,1022.31
2017-11-17T10:31:47.084Z,1022.26
2017-11-17T10:32:47.068Z,1022.27
2017-11-17T10:33:47.052Z,1022.24
2017-11-17T10:34:47.046Z,1022.23
2017-11-17T10:35:47.067Z,1022.20
2017-11-17T10:36:47.067Z,1022.21
2017-11-17T10:37:47.087Z,1022.22
2017-11-17T10:38:47.064Z,1022.20
2017-11-17T10:39:47.001Z,1022.15
2017-11-17T10:40:46.946Z,1022.16
2017-11-17T10:41:46.931Z,1022.05
2017-11-17T10:42:46.916Z,1022.06
2017-11-17T10:43:46.975Z,1022.11
2017-11-17T10:44:46.930Z,1022.10
2017-11-17T10:45:46.959Z,1022.05
2017-11-17T10:46:46.949Z,1022.00
2017-11-17T10:47:46.899Z,1021.90
2017-11-17T10:48:46.815Z,1021.92
2017-11-17T10:49:46.802Z,1021.87
2017-11-17T10:50:46.795Z,1021.83
2017-11-17T10:51:46.770Z,1021.81
2017-11-17T10:52:46.757Z,1021.80
2017-11-17T10:53:46.738Z,1021.87
2017-11-17T10:54:46.722Z,1021.90
2017-11-17T10:55:46.707Z,1021.85
2017-11-17T10:56:46.689Z,1021.84
2017-11-17T10:57:46.672Z,1021.79
2017-11-17T10:58:46.657Z,1021.77
2017-11-17T10:59:46.652Z,1021.77
2017-11-17T11:00:46.628Z,1021.83
2017-11-17T11:01:46.606Z,1021.81
2017-11-17T11:02:46.623Z,1021.83
2017-11-17T11:03:46.580Z,1021.84
2017-11-17T11:04:46.563Z,1021.87
2017-11-17T11:05:46.594Z,1021.91
2017-11-17T11:06:46.532Z,1021.86
2017-11-17T11:07:46.566Z,1021.79
2017-11-17T11:08:46.586Z,1021.78
2017-11-17T11:09:46.568Z,1021.87
2017-11-17T11:10:46.561Z,1021.84
2017-11-17T11:11:46.494Z,1021.82
2017-11-17T11:12:46.440Z,1021.85
2017-11-17T11:13:46.422Z,1021.87
2017-11-17T11:14:46.490Z,1021.88
2017-11-17T11:15:46.391Z,1021.86
2017-11-17T11:16:46.374Z,1021.81
2017-11-17T11:17:46.395Z,1021.74
2017-11-17T11:18:46.349Z,1021.81
2017-11-17T11:19:46.327Z,1021.82
2017-11-17T11:20:46.357Z,1021.83
2017-11-17T11:21:46.380Z,1021.77
2017-11-17T11:22:46.279Z,1021.70
2017-11-17T11:23:46.264Z,1021.71
2017-11-17T11:24:46.248Z,1021.64
2017-11-17T11:25:46.231Z,1021.66
2017-11-17T11:26:46.215Z,1021.66
2017-11-17T11:27:46.202Z,1021.66
2017-11-17T11:28:46.183Z,1021.62
2017-11-17T11:29:46.169Z,1021.59
2017-11-17T11:30:46.153Z,1021.64
2017-11-17T11:31:46.137Z,1021.63
2017-11-17T11:32:46.119Z,1021.62
2017-11-17T11:33:46.108Z,1021.59
2017-11-17T11:34:46.087Z,1021.53
2017-11-17T11:35:46.070Z,1021.54
2017-11-17T11:36:46.053Z,1021.57
2017-11-17T11:37:46.037Z,1021.54
2017-11-17T11:38:46.020Z,1021.52
2017-11-17T11:39:46.005Z,1021.51
2017-11-17T11:40:45.986Z,1021.50
2017-11-17T11:41:45.975Z,1021.41
2017-11-17T11:42:45.954Z,1021.44
2017-11-17T11:43:45.938Z,1021.47
2017-11-17T11:44:45.921Z,1021.42
2017-11-17T11:45:45.905Z,1021.43
2017-11-17T11:46:45.886Z,1021.54
2017-11-17T11:47:45.872Z,1021.58
2017-11-17T11:48:45.886Z,1021.58
2017-11-17T11:49:45.836Z,1021.58
2017-11-17T11:50:45.818Z,1021.52
2017-11-17T11:51:45.806Z,1021.56
2017-11-17T11:52:45.783Z,1021.53
2017-11-17T11:53:45.800Z,1021.54
2017-11-17T11:54:45.750Z,1021.54
2017-11-17T11:55:45.739Z,1021.54
2017-11-17T11:56:45.712Z,1021.53
2017-11-17T11:57:45.696Z,1021.53
2017-11-17T11:58:45.678Z,1021.55
2017-11-17T11:59:45.661Z,1021.55
2017-11-17T12:00:45.648Z,1021.53
2017-11-17T12:01:45.627Z,1021.54
2017-11-17T12:02:45.609Z,1021.53
2017-11-17T12:03:45.592Z,1021.46
2017-11-17T12:04:45.574Z,1021.51
2017-11-17T12:05:45.564Z,1021.49
2017-11-17T12:06:45.541Z,1021.46
2017-11-17T12:07:45.524Z,1021.48
2017-11-17T12:08:45.510Z,1021.46
2017-11-17T12:09:45.489Z,1021.48
2017-11-17T12:10:45.472Z,1021.50
2017-11-17T12:11:45.479Z,1021.45
2017-11-17T12:12:45.436Z,1021.47
2017-11-17T12:13:45.420Z,1021.49
2017-11-17T12:14:45.406Z,1021.52
2017-11-17T12:15:45.398Z,1021.50
2017-11-17T12:16:45.370Z,1021.49
2017-11-17T12:17:45.354Z,1021.53